Terminal Aerodrome Forecast
Issued by NWS Sterling, VA

Current Version | Previous Version | Text Only | Print | Product List | Glossary Off
Versions: 1 2 3 4 5 6 7 8 9 10 11 12 13 14 15 16 17 18 19 20 21 22 23

000
FTUS41 KLWX 171400 AAA
TAFDCA
TAF AMD
KDCA 171439Z 1715/1812 17006KT P6SM BKN090 BKN250
     FM171800 26009KT P6SM VCTS SCT040CB BKN120
     FM172300 30005KT P6SM SCT040 BKN120=

USA.gov is the U.S. government's official web portal to all federal, state and local government web resources and services.